createdAt,value
2018-12-25T00:00:04.000Z,50.042
2018-12-25T00:10:04.000Z,50.051
2018-12-25T00:20:04.000Z,50.018
2018-12-25T00:30:04.000Z,50.366
2018-12-25T00:40:04.000Z,49.971
2018-12-25T00:50:04.000Z,50.24
2018-12-25T01:00:05.000Z,49.546
2018-12-25T01:10:04.000Z,49.103
2018-12-25T01:20:04.000Z,49.117
2018-12-25T01:30:04.000Z,48.885
2018-12-25T01:40:04.000Z,49.205
2018-12-25T01:50:04.000Z,49.351
2018-12-25T02:00:04.000Z,49.279
2018-12-25T02:10:04.000Z,49.229
2018-12-25T02:20:04.000Z,48.59
2018-12-25T02:30:04.000Z,48.521
2018-12-25T02:40:04.000Z,48.398
2018-12-25T02:50:04.000Z,48.134
2018-12-25T03:00:04.000Z,48.163
2018-12-25T03:10:04.000Z,48.553
2018-12-25T03:20:04.000Z,48.411
2018-12-25T03:30:06.000Z,48.632
2018-12-25T03:40:04.000Z,48.381
2018-12-25T03:50:04.000Z,48.727
2018-12-25T04:00:04.000Z,48.554
2018-12-25T04:10:04.000Z,48.452
2018-12-25T04:20:04.000Z,48.5
2018-12-25T04:30:04.000Z,48.83
2018-12-25T04:40:05.000Z,49.046
2018-12-25T04:50:05.000Z,48.776
2018-12-25T05:00:05.000Z,48.706
2018-12-25T05:10:05.000Z,48.662
2018-12-25T05:20:05.000Z,48.657
2018-12-25T05:30:05.000Z,48.052
2018-12-25T05:40:05.000Z,47.889
2018-12-25T05:50:05.000Z,47.878
2018-12-25T06:00:05.000Z,47.725
2018-12-25T06:10:05.000Z,47.585
2018-12-25T06:20:05.000Z,47.41
2018-12-25T06:30:05.000Z,47.143
2018-12-25T06:40:05.000Z,46.72
2018-12-25T06:50:05.000Z,47.02
2018-12-25T07:00:05.000Z,46.783
2018-12-25T07:10:05.000Z,46.757
2018-12-25T07:20:05.000Z,46.403
2018-12-25T07:30:05.000Z,45.752
2018-12-25T07:40:05.000Z,45.87
2018-12-25T07:50:05.000Z,45.398
2018-12-25T08:00:05.000Z,44.728
2018-12-25T08:10:05.000Z,43.227
2018-12-25T08:20:05.000Z,43.654
2018-12-25T08:30:05.000Z,44.212
2018-12-25T08:40:05.000Z,43.634
2018-12-25T08:50:05.000Z,43.296
2018-12-25T09:00:05.000Z,42.56
2018-12-25T09:10:05.000Z,43.291
2018-12-25T09:20:05.000Z,43.135
2018-12-25T09:30:05.000Z,43.322
2018-12-25T09:40:05.000Z,43.345
2018-12-25T09:50:05.000Z,43.309
2018-12-25T10:00:05.000Z,44.231
2018-12-25T10:10:05.000Z,43.797
2018-12-25T10:20:05.000Z,43.528
2018-12-25T10:30:07.000Z,43.261
2018-12-25T10:40:05.000Z,42.001
2018-12-25T10:50:05.000Z,41.728
2018-12-25T11:00:05.000Z,42.13
2018-12-25T11:10:06.000Z,42.648
2018-12-25T11:20:05.000Z,42.55
2018-12-25T11:30:06.000Z,43.063
2018-12-25T11:40:05.000Z,42.764
2018-12-25T11:50:05.000Z,43.206
2018-12-25T12:00:05.000Z,43.419
2018-12-25T12:10:05.000Z,42.993
2018-12-25T12:20:06.000Z,43.477
2018-12-25T12:30:06.000Z,42.733
2018-12-25T12:40:05.000Z,43.252
2018-12-25T12:50:06.000Z,41.842
2018-12-25T13:00:06.000Z,40.801
2018-12-25T13:10:06.000Z,41.165
2018-12-25T13:20:06.000Z,41.291
2018-12-25T13:30:06.000Z,41.195
2018-12-25T13:40:06.000Z,40.454
2018-12-25T13:50:06.000Z,40.246
2018-12-25T14:00:06.000Z,40.438
2018-12-25T14:10:06.000Z,40.875
2018-12-25T14:20:06.000Z,40.376
2018-12-25T14:30:07.000Z,39.707
2018-12-25T14:40:06.000Z,39.94
2018-12-25T14:50:06.000Z,40.185
2018-12-25T15:00:06.000Z,40.517
2018-12-25T15:10:06.000Z,40.678
2018-12-25T15:20:06.000Z,39.997
2018-12-25T15:30:06.000Z,40.459
2018-12-25T15:40:06.000Z,40.59
2018-12-25T15:50:06.000Z,40.421
2018-12-25T16:00:06.000Z,40.662
2018-12-25T16:10:06.000Z,41.364
2018-12-25T16:20:06.000Z,40.273
2018-12-25T16:30:06.000Z,40.438
2018-12-25T16:40:06.000Z,40.305
2018-12-25T16:50:06.000Z,40.098
2018-12-25T17:00:06.000Z,40.441
2018-12-25T17:20:06.000Z,39.847
2018-12-25T17:30:06.000Z,39.54
2018-12-25T17:40:06.000Z,39.45
2018-12-25T17:50:06.000Z,39.423
2018-12-25T18:00:06.000Z,39.314
2018-12-25T18:10:06.000Z,39.041
2018-12-25T18:20:06.000Z,38.749
2018-12-25T18:30:06.000Z,39.072
2018-12-25T18:40:06.000Z,39.018
2018-12-25T18:50:06.000Z,38.855
2018-12-25T19:00:06.000Z,38.854
2018-12-25T19:10:06.000Z,38.259
2018-12-25T19:20:06.000Z,38.787
2018-12-25T19:30:06.000Z,38.741
2018-12-25T19:40:06.000Z,38.588
2018-12-25T19:50:06.000Z,38.482
2018-12-25T20:00:06.000Z,38.673
2018-12-25T20:10:07.000Z,38.488
2018-12-25T20:20:06.000Z,38.68
2018-12-25T20:30:06.000Z,38.723
2018-12-25T20:40:06.000Z,38.766
2018-12-25T20:50:06.000Z,38.486
2018-12-25T21:00:07.000Z,38.806
2018-12-25T21:10:07.000Z,38.536
2018-12-25T21:20:07.000Z,38.654
2018-12-25T21:30:07.000Z,38.804
2018-12-25T21:40:07.000Z,38.609
2018-12-25T21:50:07.000Z,38.662
2018-12-25T22:00:07.000Z,38.736
2018-12-25T22:10:07.000Z,38.723
2018-12-25T22:20:07.000Z,38.712
2018-12-25T22:30:10.000Z,38.744
2018-12-25T22:40:08.000Z,38.818
2018-12-25T22:50:07.000Z,39.053
2018-12-25T23:00:07.000Z,39.083
2018-12-25T23:10:07.000Z,39.264
2018-12-25T23:20:07.000Z,39.261
2018-12-25T23:30:07.000Z,39.387
2018-12-25T23:40:07.000Z,39.493
2018-12-25T23:50:07.000Z,39.598
